sensor_id;sensor_type;location;lat;lon;timestamp;P1;durP1;ratioP1;P2;durP2;ratioP2
51778;SDS011;37843;53.266;6.746;2022-07-18T00:02:05;6.13;;;5.15;;
51778;SDS011;37843;53.266;6.746;2022-07-18T00:04:34;5.20;;;4.32;;
51778;SDS011;37843;53.266;6.746;2022-07-18T00:07:02;6.07;;;4.32;;
51778;SDS011;37843;53.266;6.746;2022-07-18T00:09:29;7.70;;;4.90;;
51778;SDS011;37843;53.266;6.746;2022-07-18T00:11:56;6.47;;;4.75;;
51778;SDS011;37843;53.266;6.746;2022-07-18T00:14:28;5.95;;;5.13;;
51778;SDS011;37843;53.266;6.746;2022-07-18T00:16:54;6.05;;;5.45;;
51778;SDS011;37843;53.266;6.746;2022-07-18T00:19:24;8.35;;;5.45;;
51778;SDS011;37843;53.266;6.746;2022-07-18T00:21:55;6.40;;;5.40;;
51778;SDS011;37843;53.266;6.746;2022-07-18T00:24:22;6.45;;;5.85;;
51778;SDS011;37843;53.266;6.746;2022-07-18T00:26:49;7.38;;;6.05;;
51778;SDS011;37843;53.266;6.746;2022-07-18T00:29:17;5.85;;;5.30;;
51778;SDS011;37843;53.266;6.746;2022-07-18T00:31:45;6.85;;;6.15;;
51778;SDS011;37843;53.266;6.746;2022-07-18T00:34:11;6.90;;;5.40;;
51778;SDS011;37843;53.266;6.746;2022-07-18T00:36:37;7.32;;;5.10;;
51778;SDS011;37843;53.266;6.746;2022-07-18T00:39:05;6.35;;;5.47;;
51778;SDS011;37843;53.266;6.746;2022-07-18T00:41:32;7.03;;;5.30;;
51778;SDS011;37843;53.266;6.746;2022-07-18T00:44:01;7.43;;;5.57;;
51778;SDS011;37843;53.266;6.746;2022-07-18T00:46:31;6.85;;;5.50;;
51778;SDS011;37843;53.266;6.746;2022-07-18T00:48:58;7.00;;;6.30;;
51778;SDS011;37843;53.266;6.746;2022-07-18T00:51:24;5.50;;;4.80;;
51778;SDS011;37843;53.266;6.746;2022-07-18T00:53:50;6.38;;;5.75;;
51778;SDS011;37843;53.266;6.746;2022-07-18T00:56:20;5.18;;;4.50;;
51778;SDS011;37843;53.266;6.746;2022-07-18T00:58:52;5.82;;;4.78;;
51778;SDS011;37843;53.266;6.746;2022-07-18T01:01:19;5.57;;;5.03;;
51778;SDS011;37843;53.266;6.746;2022-07-18T01:04:04;6.13;;;5.03;;
51778;SDS011;37843;53.266;6.746;2022-07-18T01:06:34;5.70;;;5.13;;
51778;SDS011;37843;53.266;6.746;2022-07-18T01:09:00;5.82;;;5.07;;
51778;SDS011;37843;53.266;6.746;2022-07-18T01:11:27;5.90;;;3.88;;
51778;SDS011;37843;53.266;6.746;2022-07-18T01:13:56;5.03;;;3.95;;
51778;SDS011;37843;53.266;6.746;2022-07-18T01:16:23;6.00;;;4.47;;
51778;SDS011;37843;53.266;6.746;2022-07-18T01:18:51;5.03;;;4.43;;
51778;SDS011;37843;53.266;6.746;2022-07-18T01:21:18;6.43;;;5.43;;
51778;SDS011;37843;53.266;6.746;2022-07-18T01:23:44;6.15;;;5.50;;
51778;SDS011;37843;53.266;6.746;2022-07-18T01:26:12;6.65;;;5.80;;
51778;SDS011;37843;53.266;6.746;2022-07-18T01:28:39;7.18;;;5.75;;
51778;SDS011;37843;53.266;6.746;2022-07-18T01:31:08;7.10;;;5.82;;
51778;SDS011;37843;53.266;6.746;2022-07-18T01:33:35;7.07;;;6.00;;
51778;SDS011;37843;53.266;6.746;2022-07-18T01:36:05;7.55;;;5.80;;
51778;SDS011;37843;53.266;6.746;2022-07-18T01:38:32;6.15;;;5.35;;
51778;SDS011;37843;53.266;6.746;2022-07-18T01:41:01;7.97;;;5.72;;
51778;SDS011;37843;53.266;6.746;2022-07-18T01:43:28;8.27;;;6.88;;
51778;SDS011;37843;53.266;6.746;2022-07-18T01:45:55;7.82;;;5.32;;
51778;SDS011;37843;53.266;6.746;2022-07-18T01:48:22;6.57;;;5.85;;
51778;SDS011;37843;53.266;6.746;2022-07-18T01:50:50;7.22;;;5.53;;
51778;SDS011;37843;53.266;6.746;2022-07-18T01:53:21;6.28;;;5.57;;
51778;SDS011;37843;53.266;6.746;2022-07-18T01:55:50;6.70;;;5.38;;
51778;SDS011;37843;53.266;6.746;2022-07-18T01:58:17;6.45;;;5.80;;
51778;SDS011;37843;53.266;6.746;2022-07-18T02:00:43;7.13;;;6.13;;
51778;SDS011;37843;53.266;6.746;2022-07-18T02:03:11;7.13;;;6.43;;
51778;SDS011;37843;53.266;6.746;2022-07-18T02:05:39;8.73;;;7.07;;
51778;SDS011;37843;53.266;6.746;2022-07-18T02:08:07;8.07;;;5.88;;
51778;SDS011;37843;53.266;6.746;2022-07-18T02:10:39;6.80;;;5.60;;
51778;SDS011;37843;53.266;6.746;2022-07-18T02:13:08;6.80;;;6.10;;
51778;SDS011;37843;53.266;6.746;2022-07-18T02:15:35;8.02;;;6.35;;
51778;SDS011;37843;53.266;6.746;2022-07-18T02:18:01;8.98;;;7.22;;
51778;SDS011;37843;53.266;6.746;2022-07-18T02:20:27;8.57;;;6.93;;
51778;SDS011;37843;53.266;6.746;2022-07-18T02:22:55;8.77;;;6.72;;
51778;SDS011;37843;53.266;6.746;2022-07-18T02:25:23;8.05;;;6.88;;
51778;SDS011;37843;53.266;6.746;2022-07-18T02:27:51;8.05;;;6.90;;
51778;SDS011;37843;53.266;6.746;2022-07-18T02:30:17;6.95;;;6.07;;
51778;SDS011;37843;53.266;6.746;2022-07-18T02:32:47;10.82;;;7.57;;
51778;SDS011;37843;53.266;6.746;2022-07-18T02:35:14;10.27;;;7.38;;
51778;SDS011;37843;53.266;6.746;2022-07-18T02:37:42;8.18;;;7.10;;
51778;SDS011;37843;53.266;6.746;2022-07-18T02:40:09;13.10;;;7.70;;
51778;SDS011;37843;53.266;6.746;2022-07-18T02:42:39;8.90;;;6.50;;
51778;SDS011;37843;53.266;6.746;2022-07-18T02:45:07;9.13;;;6.88;;
51778;SDS011;37843;53.266;6.746;2022-07-18T02:47:34;7.63;;;6.75;;
51778;SDS011;37843;53.266;6.746;2022-07-18T02:50:00;9.60;;;6.90;;
51778;SDS011;37843;53.266;6.746;2022-07-18T02:52:27;11.05;;;7.95;;
51778;SDS011;37843;53.266;6.746;2022-07-18T02:54:53;10.15;;;7.25;;
51778;SDS011;37843;53.266;6.746;2022-07-18T02:57:22;9.00;;;6.88;;
51778;SDS011;37843;53.266;6.746;2022-07-18T02:59:52;9.23;;;7.07;;
51778;SDS011;37843;53.266;6.746;2022-07-18T03:02:24;10.13;;;6.72;;
51778;SDS011;37843;53.266;6.746;2022-07-18T03:04:50;10.63;;;7.20;;
51778;SDS011;37843;53.266;6.746;2022-07-18T03:07:20;8.38;;;6.13;;
51778;SDS011;37843;53.266;6.746;2022-07-18T03:09:50;9.13;;;6.35;;
51778;SDS011;37843;53.266;6.746;2022-07-18T03:12:17;11.75;;;7.20;;
51778;SDS011;37843;53.266;6.746;2022-07-18T03:14:44;9.23;;;6.65;;
51778;SDS011;37843;53.266;6.746;2022-07-18T03:17:13;9.50;;;6.90;;
51778;SDS011;37843;53.266;6.746;2022-07-18T03:19:39;9.25;;;6.95;;
51778;SDS011;37843;53.266;6.746;2022-07-18T03:22:06;7.47;;;6.35;;
51778;SDS011;37843;53.266;6.746;2022-07-18T03:24:33;7.45;;;6.53;;
51778;SDS011;37843;53.266;6.746;2022-07-18T03:27:04;11.07;;;7.45;;
51778;SDS011;37843;53.266;6.746;2022-07-18T03:29:33;12.23;;;7.53;;
51778;SDS011;37843;53.266;6.746;2022-07-18T03:32:01;11.52;;;6.95;;
51778;SDS011;37843;53.266;6.746;2022-07-18T03:34:30;10.40;;;7.10;;
51778;SDS011;37843;53.266;6.746;2022-07-18T03:36:57;9.50;;;7.05;;
51778;SDS011;37843;53.266;6.746;2022-07-18T03:39:24;9.95;;;7.03;;
51778;SDS011;37843;53.266;6.746;2022-07-18T03:41:52;12.02;;;7.47;;
51778;SDS011;37843;53.266;6.746;2022-07-18T03:44:18;11.68;;;7.40;;
51778;SDS011;37843;53.266;6.746;2022-07-18T03:46:45;11.13;;;7.72;;
51778;SDS011;37843;53.266;6.746;2022-07-18T03:49:12;10.55;;;7.35;;
51778;SDS011;37843;53.266;6.746;2022-07-18T03:51:39;11.23;;;6.70;;
51778;SDS011;37843;53.266;6.746;2022-07-18T03:54:05;10.23;;;6.45;;
51778;SDS011;37843;53.266;6.746;2022-07-18T03:56:35;8.88;;;6.43;;
51778;SDS011;37843;53.266;6.746;2022-07-18T03:59:04;9.18;;;6.53;;
51778;SDS011;37843;53.266;6.746;2022-07-18T04:01:31;8.98;;;7.38;;
51778;SDS011;37843;53.266;6.746;2022-07-18T04:04:00;9.50;;;6.65;;
51778;SDS011;37843;53.266;6.746;2022-07-18T04:06:28;7.72;;;6.18;;
51778;SDS011;37843;53.266;6.746;2022-07-18T04:08:56;10.52;;;7.55;;
51778;SDS011;37843;53.266;6.746;2022-07-18T04:11:23;9.82;;;7.32;;
51778;SDS011;37843;53.266;6.746;2022-07-18T04:13:50;9.63;;;7.28;;
51778;SDS011;37843;53.266;6.746;2022-07-18T04:16:21;8.88;;;6.38;;
51778;SDS011;37843;53.266;6.746;2022-07-18T04:18:47;10.50;;;6.55;;
51778;SDS011;37843;53.266;6.746;2022-07-18T04:21:15;9.07;;;6.82;;
51778;SDS011;37843;53.266;6.746;2022-07-18T04:23:45;8.55;;;6.35;;
51778;SDS011;37843;53.266;6.746;2022-07-18T04:26:11;8.52;;;6.25;;
51778;SDS011;37843;53.266;6.746;2022-07-18T04:28:39;9.85;;;6.75;;
51778;SDS011;37843;53.266;6.746;2022-07-18T04:31:07;8.45;;;6.63;;
51778;SDS011;37843;53.266;6.746;2022-07-18T04:33:33;9.18;;;6.53;;
51778;SDS011;37843;53.266;6.746;2022-07-18T04:36:03;9.95;;;6.70;;
51778;SDS011;37843;53.266;6.746;2022-07-18T04:38:30;10.90;;;7.78;;
51778;SDS011;37843;53.266;6.746;2022-07-18T04:41:05;8.77;;;7.05;;
51778;SDS011;37843;53.266;6.746;2022-07-18T04:43:51;8.23;;;6.43;;
51778;SDS011;37843;53.266;6.746;2022-07-18T04:46:18;8.75;;;6.95;;
51778;SDS011;37843;53.266;6.746;2022-07-18T04:48:45;8.40;;;6.38;;
51778;SDS011;37843;53.266;6.746;2022-07-18T04:51:12;11.05;;;6.45;;
51778;SDS011;37843;53.266;6.746;2022-07-18T04:53:39;9.48;;;6.72;;
51778;SDS011;37843;53.266;6.746;2022-07-18T04:56:10;10.20;;;6.10;;
51778;SDS011;37843;53.266;6.746;2022-07-18T04:58:36;8.88;;;6.03;;
51778;SDS011;37843;53.266;6.746;2022-07-18T05:01:03;10.13;;;6.38;;
51778;SDS011;37843;53.266;6.746;2022-07-18T05:03:31;7.90;;;6.07;;
51778;SDS011;37843;53.266;6.746;2022-07-18T05:05:58;10.48;;;6.43;;
51778;SDS011;37843;53.266;6.746;2022-07-18T05:08:28;9.60;;;5.78;;
51778;SDS011;37843;53.266;6.746;2022-07-18T05:10:54;10.93;;;6.18;;
51778;SDS011;37843;53.266;6.746;2022-07-18T05:13:21;7.50;;;5.72;;
51778;SDS011;37843;53.266;6.746;2022-07-18T05:15:47;8.50;;;6.00;;
51778;SDS011;37843;53.266;6.746;2022-07-18T05:18:17;9.93;;;6.22;;
51778;SDS011;37843;53.266;6.746;2022-07-18T05:20:47;8.27;;;6.28;;
51778;SDS011;37843;53.266;6.746;2022-07-18T05:23:14;7.72;;;5.75;;
51778;SDS011;37843;53.266;6.746;2022-07-18T05:25:41;10.43;;;5.47;;
51778;SDS011;37843;53.266;6.746;2022-07-18T05:28:07;8.80;;;5.93;;
51778;SDS011;37843;53.266;6.746;2022-07-18T05:30:34;7.80;;;5.03;;
51778;SDS011;37843;53.266;6.746;2022-07-18T05:33:02;8.60;;;5.30;;
51778;SDS011;37843;53.266;6.746;2022-07-18T05:35:28;7.18;;;5.50;;
51778;SDS011;37843;53.266;6.746;2022-07-18T05:37:55;6.78;;;4.80;;
51778;SDS011;37843;53.266;6.746;2022-07-18T05:40:22;6.75;;;4.80;;
51778;SDS011;37843;53.266;6.746;2022-07-18T05:42:48;10.27;;;5.03;;
51778;SDS011;37843;53.266;6.746;2022-07-18T05:45:15;6.53;;;4.85;;
51778;SDS011;37843;53.266;6.746;2022-07-18T05:47:42;11.75;;;5.63;;
51778;SDS011;37843;53.266;6.746;2022-07-18T05:50:08;8.15;;;4.90;;
51778;SDS011;37843;53.266;6.746;2022-07-18T05:52:35;7.10;;;4.90;;
51778;SDS011;37843;53.266;6.746;2022-07-18T05:55:05;8.52;;;4.72;;
51778;SDS011;37843;53.266;6.746;2022-07-18T05:57:32;7.38;;;4.65;;
51778;SDS011;37843;53.266;6.746;2022-07-18T05:59:59;9.65;;;5.20;;
51778;SDS011;37843;53.266;6.746;2022-07-18T06:02:34;6.78;;;4.30;;
51778;SDS011;37843;53.266;6.746;2022-07-18T06:05:01;7.10;;;5.15;;
51778;SDS011;37843;53.266;6.746;2022-07-18T06:07:28;6.00;;;4.60;;
51778;SDS011;37843;53.266;6.746;2022-07-18T06:09:54;5.40;;;4.20;;
51778;SDS011;37843;53.266;6.746;2022-07-18T06:12:22;5.10;;;4.03;;
51778;SDS011;37843;53.266;6.746;2022-07-18T06:14:49;4.15;;;3.58;;
51778;SDS011;37843;53.266;6.746;2022-07-18T06:17:19;6.20;;;4.40;;
51778;SDS011;37843;53.266;6.746;2022-07-18T06:19:48;5.22;;;3.80;;
51778;SDS011;37843;53.266;6.746;2022-07-18T06:22:17;5.30;;;3.30;;
51778;SDS011;37843;53.266;6.746;2022-07-18T06:24:44;7.55;;;3.58;;
51778;SDS011;37843;53.266;6.746;2022-07-18T06:27:12;5.28;;;3.90;;
51778;SDS011;37843;53.266;6.746;2022-07-18T06:29:41;5.32;;;3.50;;
51778;SDS011;37843;53.266;6.746;2022-07-18T06:32:11;6.22;;;3.95;;
51778;SDS011;37843;53.266;6.746;2022-07-18T06:34:39;7.07;;;3.95;;
51778;SDS011;37843;53.266;6.746;2022-07-18T06:37:08;8.13;;;3.92;;
51778;SDS011;37843;53.266;6.746;2022-07-18T06:39:38;5.05;;;3.72;;
51778;SDS011;37843;53.266;6.746;2022-07-18T06:42:04;5.50;;;3.45;;
51778;SDS011;37843;53.266;6.746;2022-07-18T06:44:38;5.50;;;3.90;;
51778;SDS011;37843;53.266;6.746;2022-07-18T06:47:05;8.30;;;3.67;;
51778;SDS011;37843;53.266;6.746;2022-07-18T06:49:33;5.35;;;3.10;;
51778;SDS011;37843;53.266;6.746;2022-07-18T06:52:00;5.40;;;3.38;;
51778;SDS011;37843;53.266;6.746;2022-07-18T06:54:27;7.38;;;4.18;;
51778;SDS011;37843;53.266;6.746;2022-07-18T06:56:54;6.47;;;3.00;;
51778;SDS011;37843;53.266;6.746;2022-07-18T06:59:21;7.28;;;3.03;;
51778;SDS011;37843;53.266;6.746;2022-07-18T07:01:50;5.47;;;3.50;;
51778;SDS011;37843;53.266;6.746;2022-07-18T07:04:17;5.40;;;3.38;;
51778;SDS011;37843;53.266;6.746;2022-07-18T07:06:45;5.43;;;3.22;;
51778;SDS011;37843;53.266;6.746;2022-07-18T07:09:11;4.85;;;3.00;;
51778;SDS011;37843;53.266;6.746;2022-07-18T07:11:40;5.03;;;3.30;;
51778;SDS011;37843;53.266;6.746;2022-07-18T07:14:08;3.63;;;2.97;;
51778;SDS011;37843;53.266;6.746;2022-07-18T07:16:53;6.85;;;3.20;;
51778;SDS011;37843;53.266;6.746;2022-07-18T07:19:30;4.18;;;2.70;;
51778;SDS011;37843;53.266;6.746;2022-07-18T07:21:56;3.42;;;2.95;;
51778;SDS011;37843;53.266;6.746;2022-07-18T07:24:23;5.22;;;3.08;;
51778;SDS011;37843;53.266;6.746;2022-07-18T07:26:51;4.68;;;2.42;;
51778;SDS011;37843;53.266;6.746;2022-07-18T07:29:17;4.07;;;2.38;;
51778;SDS011;37843;53.266;6.746;2022-07-18T07:31:44;4.32;;;2.75;;
51778;SDS011;37843;53.266;6.746;2022-07-18T07:34:29;4.55;;;2.67;;
51778;SDS011;37843;53.266;6.746;2022-07-18T07:36:59;4.65;;;2.25;;
51778;SDS011;37843;53.266;6.746;2022-07-18T07:39:26;4.15;;;2.60;;
51778;SDS011;37843;53.266;6.746;2022-07-18T07:41:55;5.40;;;2.47;;
51778;SDS011;37843;53.266;6.746;2022-07-18T07:44:22;3.95;;;2.38;;
51778;SDS011;37843;53.266;6.746;2022-07-18T07:46:48;3.15;;;2.22;;
51778;SDS011;37843;53.266;6.746;2022-07-18T07:49:17;4.30;;;2.17;;
51778;SDS011;37843;53.266;6.746;2022-07-18T07:51:43;2.78;;;1.88;;
51778;SDS011;37843;53.266;6.746;2022-07-18T07:54:11;2.35;;;1.88;;
51778;SDS011;37843;53.266;6.746;2022-07-18T07:56:39;4.57;;;2.30;;
51778;SDS011;37843;53.266;6.746;2022-07-18T07:59:05;2.80;;;1.90;;
51778;SDS011;37843;53.266;6.746;2022-07-18T08:01:33;4.38;;;2.30;;
51778;SDS011;37843;53.266;6.746;2022-07-18T08:04:04;3.67;;;2.03;;
51778;SDS011;37843;53.266;6.746;2022-07-18T08:06:31;3.90;;;2.30;;
51778;SDS011;37843;53.266;6.746;2022-07-18T08:09:00;3.35;;;2.08;;
51778;SDS011;37843;53.266;6.746;2022-07-18T08:11:28;3.03;;;1.75;;
51778;SDS011;37843;53.266;6.746;2022-07-18T08:13:55;4.38;;;2.28;;
51778;SDS011;37843;53.266;6.746;2022-07-18T08:16:26;4.60;;;2.40;;
51778;SDS011;37843;53.266;6.746;2022-07-18T08:18:52;4.18;;;2.25;;
51778;SDS011;37843;53.266;6.746;2022-07-18T08:21:19;3.22;;;2.10;;
51778;SDS011;37843;53.266;6.746;2022-07-18T08:23:46;3.20;;;2.10;;
51778;SDS011;37843;53.266;6.746;2022-07-18T08:26:18;2.58;;;1.80;;
51778;SDS011;37843;53.266;6.746;2022-07-18T08:28:44;4.30;;;2.40;;
51778;SDS011;37843;53.266;6.746;2022-07-18T08:31:11;3.95;;;2.65;;
51778;SDS011;37843;53.266;6.746;2022-07-18T08:33:38;2.92;;;1.92;;
51778;SDS011;37843;53.266;6.746;2022-07-18T08:36:04;3.83;;;2.13;;
51778;SDS011;37843;53.266;6.746;2022-07-18T08:38:32;4.25;;;2.28;;
51778;SDS011;37843;53.266;6.746;2022-07-18T08:41:00;4.18;;;1.70;;
51778;SDS011;37843;53.266;6.746;2022-07-18T08:43:29;2.83;;;1.92;;
51778;SDS011;37843;53.266;6.746;2022-07-18T08:45:56;3.25;;;1.90;;
51778;SDS011;37843;53.266;6.746;2022-07-18T08:48:24;2.63;;;2.05;;
51778;SDS011;37843;53.266;6.746;2022-07-18T08:50:54;4.57;;;2.10;;
51778;SDS011;37843;53.266;6.746;2022-07-18T08:56:11;3.58;;;1.77;;
51778;SDS011;37843;53.266;6.746;2022-07-18T08:58:40;3.70;;;2.17;;
51778;SDS011;37843;53.266;6.746;2022-07-18T09:01:07;4.28;;;2.05;;
51778;SDS011;37843;53.266;6.746;2022-07-18T09:03:34;3.53;;;1.73;;
51778;SDS011;37843;53.266;6.746;2022-07-18T09:06:04;4.10;;;1.60;;
51778;SDS011;37843;53.266;6.746;2022-07-18T09:08:36;3.15;;;1.80;;
51778;SDS011;37843;53.266;6.746;2022-07-18T09:11:04;3.13;;;1.95;;
51778;SDS011;37843;53.266;6.746;2022-07-18T09:13:36;2.63;;;2.05;;
51778;SDS011;37843;53.266;6.746;2022-07-18T09:16:05;3.20;;;1.90;;
51778;SDS011;37843;53.266;6.746;2022-07-18T09:18:37;3.58;;;1.92;;
51778;SDS011;37843;53.266;6.746;2022-07-18T09:21:05;4.93;;;1.92;;
51778;SDS011;37843;53.266;6.746;2022-07-18T09:23:33;3.50;;;2.20;;
51778;SDS011;37843;53.266;6.746;2022-07-18T09:26:01;3.38;;;1.80;;
51778;SDS011;37843;53.266;6.746;2022-07-18T09:28:28;2.40;;;1.80;;
51778;SDS011;37843;53.266;6.746;2022-07-18T09:30:59;3.97;;;2.22;;
51778;SDS011;37843;53.266;6.746;2022-07-18T09:33:50;4.20;;;1.92;;
51778;SDS011;37843;53.266;6.746;2022-07-18T09:36:19;3.88;;;2.30;;
51778;SDS011;37843;53.266;6.746;2022-07-18T09:38:48;6.95;;;2.63;;
51778;SDS011;37843;53.266;6.746;2022-07-18T09:41:15;3.05;;;1.88;;
51778;SDS011;37843;53.266;6.746;2022-07-18T09:43:43;3.80;;;2.35;;
51778;SDS011;37843;53.266;6.746;2022-07-18T09:46:09;2.60;;;1.63;;
51778;SDS011;37843;53.266;6.746;2022-07-18T09:48:35;3.28;;;1.70;;
51778;SDS011;37843;53.266;6.746;2022-07-18T09:51:03;5.78;;;2.15;;
51778;SDS011;37843;53.266;6.746;2022-07-18T09:55:59;5.15;;;2.28;;
51778;SDS011;37843;53.266;6.746;2022-07-18T09:58:27;2.30;;;1.48;;
51778;SDS011;37843;53.266;6.746;2022-07-18T10:00:54;4.15;;;1.90;;
51778;SDS011;37843;53.266;6.746;2022-07-18T10:03:22;3.60;;;1.55;;
51778;SDS011;37843;53.266;6.746;2022-07-18T10:05:49;2.55;;;1.90;;
51778;SDS011;37843;53.266;6.746;2022-07-18T10:08:16;4.40;;;2.00;;
51778;SDS011;37843;53.266;6.746;2022-07-18T10:10:44;3.30;;;2.10;;
51778;SDS011;37843;53.266;6.746;2022-07-18T10:13:12;4.60;;;2.40;;
51778;SDS011;37843;53.266;6.746;2022-07-18T10:15:40;7.72;;;2.47;;
51778;SDS011;37843;53.266;6.746;2022-07-18T10:18:07;3.22;;;1.73;;
51778;SDS011;37843;53.266;6.746;2022-07-18T10:20:37;3.47;;;2.22;;
51778;SDS011;37843;53.266;6.746;2022-07-18T10:23:09;4.35;;;2.08;;
51778;SDS011;37843;53.266;6.746;2022-07-18T10:25:37;7.05;;;2.03;;
51778;SDS011;37843;53.266;6.746;2022-07-18T10:28:05;3.20;;;1.95;;
51778;SDS011;37843;53.266;6.746;2022-07-18T10:30:37;4.22;;;2.00;;
51778;SDS011;37843;53.266;6.746;2022-07-18T10:33:35;2.63;;;1.90;;
51778;SDS011;37843;53.266;6.746;2022-07-18T10:36:00;5.60;;;2.10;;
51778;SDS011;37843;53.266;6.746;2022-07-18T10:38:28;6.20;;;2.80;;
51778;SDS011;37843;53.266;6.746;2022-07-18T10:41:10;3.65;;;2.20;;
51778;SDS011;37843;53.266;6.746;2022-07-18T10:43:37;4.55;;;2.05;;
51778;SDS011;37843;53.266;6.746;2022-07-18T10:46:04;5.63;;;2.78;;
51778;SDS011;37843;53.266;6.746;2022-07-18T10:58:49;5.72;;;2.22;;
51778;SDS011;37843;53.266;6.746;2022-07-18T11:01:16;2.97;;;1.88;;
51778;SDS011;37843;53.266;6.746;2022-07-18T11:03:43;4.57;;;2.30;;
51778;SDS011;37843;53.266;6.746;2022-07-18T11:06:11;3.05;;;2.20;;
51778;SDS011;37843;53.266;6.746;2022-07-18T11:08:39;4.40;;;2.40;;
51778;SDS011;37843;53.266;6.746;2022-07-18T11:11:05;4.40;;;2.63;;
51778;SDS011;37843;53.266;6.746;2022-07-18T11:13:36;4.57;;;2.42;;
51778;SDS011;37843;53.266;6.746;2022-07-18T11:16:04;3.22;;;2.50;;
51778;SDS011;37843;53.266;6.746;2022-07-18T11:23:47;5.30;;;2.78;;
51778;SDS011;37843;53.266;6.746;2022-07-18T11:26:15;3.55;;;2.30;;
51778;SDS011;37843;53.266;6.746;2022-07-18T11:28:41;3.40;;;2.88;;
51778;SDS011;37843;53.266;6.746;2022-07-18T11:31:08;4.50;;;2.70;;
51778;SDS011;37843;53.266;6.746;2022-07-18T11:33:38;5.97;;;3.28;;
51778;SDS011;37843;53.266;6.746;2022-07-18T11:36:12;3.30;;;2.50;;
51778;SDS011;37843;53.266;6.746;2022-07-18T11:38:39;3.70;;;2.30;;
51778;SDS011;37843;53.266;6.746;2022-07-18T11:41:06;7.18;;;2.40;;
51778;SDS011;37843;53.266;6.746;2022-07-18T11:43:32;4.85;;;2.40;;
51778;SDS011;37843;53.266;6.746;2022-07-18T11:46:05;5.47;;;2.30;;
51778;SDS011;37843;53.266;6.746;2022-07-18T11:48:37;4.90;;;2.42;;
51778;SDS011;37843;53.266;6.746;2022-07-18T11:51:09;6.57;;;3.30;;
51778;SDS011;37843;53.266;6.746;2022-07-18T11:53:42;3.45;;;2.30;;
51778;SDS011;37843;53.266;6.746;2022-07-18T11:56:09;4.00;;;2.60;;
51778;SDS011;37843;53.266;6.746;2022-07-18T11:58:37;4.43;;;2.28;;
51778;SDS011;37843;53.266;6.746;2022-07-18T12:01:03;3.75;;;2.80;;
51778;SDS011;37843;53.266;6.746;2022-07-18T12:03:34;7.80;;;3.22;;
51778;SDS011;37843;53.266;6.746;2022-07-18T12:06:09;5.68;;;3.10;;
51778;SDS011;37843;53.266;6.746;2022-07-18T12:11:10;4.05;;;2.95;;
51778;SDS011;37843;53.266;6.746;2022-07-18T12:16:28;4.35;;;3.53;;
51778;SDS011;37843;53.266;6.746;2022-07-18T12:18:56;3.42;;;2.90;;
51778;SDS011;37843;53.266;6.746;2022-07-18T12:21:24;3.95;;;2.97;;
51778;SDS011;37843;53.266;6.746;2022-07-18T12:23:52;3.65;;;3.13;;
51778;SDS011;37843;53.266;6.746;2022-07-18T12:26:28;3.92;;;3.17;;
51778;SDS011;37843;53.266;6.746;2022-07-18T12:29:07;4.18;;;2.92;;
51778;SDS011;37843;53.266;6.746;2022-07-18T12:31:41;5.50;;;3.22;;
51778;SDS011;37843;53.266;6.746;2022-07-18T12:34:08;4.95;;;3.20;;
51778;SDS011;37843;53.266;6.746;2022-07-18T12:36:49;3.55;;;3.00;;
51778;SDS011;37843;53.266;6.746;2022-07-18T12:39:38;4.82;;;3.30;;
51778;SDS011;37843;53.266;6.746;2022-07-18T12:42:03;6.05;;;3.45;;
51778;SDS011;37843;53.266;6.746;2022-07-18T12:44:32;3.10;;;2.80;;
51778;SDS011;37843;53.266;6.746;2022-07-18T12:46:58;4.65;;;3.45;;
51778;SDS011;37843;53.266;6.746;2022-07-18T12:49:24;4.95;;;3.50;;
51778;SDS011;37843;53.266;6.746;2022-07-18T12:51:50;5.10;;;3.55;;
51778;SDS011;37843;53.266;6.746;2022-07-18T12:54:17;5.68;;;3.22;;
51778;SDS011;37843;53.266;6.746;2022-07-18T12:56:44;5.18;;;3.60;;
51778;SDS011;37843;53.266;6.746;2022-07-18T12:59:10;6.38;;;3.63;;
51778;SDS011;37843;53.266;6.746;2022-07-18T13:01:36;5.45;;;3.45;;
51778;SDS011;37843;53.266;6.746;2022-07-18T13:04:03;7.45;;;3.42;;
51778;SDS011;37843;53.266;6.746;2022-07-18T13:06:30;3.42;;;2.83;;
51778;SDS011;37843;53.266;6.746;2022-07-18T13:08:56;5.53;;;3.53;;
51778;SDS011;37843;53.266;6.746;2022-07-18T13:11:24;4.68;;;3.42;;
51778;SDS011;37843;53.266;6.746;2022-07-18T13:13:50;5.53;;;3.78;;
51778;SDS011;37843;53.266;6.746;2022-07-18T13:16:18;4.97;;;3.22;;
51778;SDS011;37843;53.266;6.746;2022-07-18T13:18:44;5.50;;;3.50;;
51778;SDS011;37843;53.266;6.746;2022-07-18T13:21:11;5.78;;;3.08;;
51778;SDS011;37843;53.266;6.746;2022-07-18T13:23:39;3.90;;;3.30;;
51778;SDS011;37843;53.266;6.746;2022-07-18T13:26:07;4.35;;;3.03;;
51778;SDS011;37843;53.266;6.746;2022-07-18T13:28:33;5.18;;;3.42;;
51778;SDS011;37843;53.266;6.746;2022-07-18T13:31:03;7.38;;;3.30;;
51778;SDS011;37843;53.266;6.746;2022-07-18T13:33:29;4.68;;;2.90;;
51778;SDS011;37843;53.266;6.746;2022-07-18T13:35:55;5.00;;;3.30;;
51778;SDS011;37843;53.266;6.746;2022-07-18T13:38:23;4.95;;;3.63;;
51778;SDS011;37843;53.266;6.746;2022-07-18T13:40:49;4.30;;;3.63;;
51778;SDS011;37843;53.266;6.746;2022-07-18T13:43:17;6.60;;;3.53;;
51778;SDS011;37843;53.266;6.746;2022-07-18T13:45:43;3.60;;;3.28;;
51778;SDS011;37843;53.266;6.746;2022-07-18T13:48:13;4.13;;;3.50;;
51778;SDS011;37843;53.266;6.746;2022-07-18T13:50:39;6.15;;;3.90;;
51778;SDS011;37843;53.266;6.746;2022-07-18T13:53:05;4.70;;;3.97;;
51778;SDS011;37843;53.266;6.746;2022-07-18T13:55:32;4.57;;;3.30;;
51778;SDS011;37843;53.266;6.746;2022-07-18T13:58:00;4.30;;;3.65;;
51778;SDS011;37843;53.266;6.746;2022-07-18T14:00:26;5.47;;;3.42;;
51778;SDS011;37843;53.266;6.746;2022-07-18T14:02:52;4.20;;;3.50;;
51778;SDS011;37843;53.266;6.746;2022-07-18T14:05:18;3.97;;;3.42;;
51778;SDS011;37843;53.266;6.746;2022-07-18T14:07:46;4.70;;;4.20;;
51778;SDS011;37843;53.266;6.746;2022-07-18T14:10:14;3.90;;;3.47;;
51778;SDS011;37843;53.266;6.746;2022-07-18T14:12:41;4.95;;;3.40;;
51778;SDS011;37843;53.266;6.746;2022-07-18T14:15:07;4.35;;;3.50;;
51778;SDS011;37843;53.266;6.746;2022-07-18T14:17:34;4.40;;;3.80;;
51778;SDS011;37843;53.266;6.746;2022-07-18T14:20:00;4.80;;;3.22;;
51778;SDS011;37843;53.266;6.746;2022-07-18T14:22:26;4.25;;;3.60;;
51778;SDS011;37843;53.266;6.746;2022-07-18T14:24:53;4.22;;;3.53;;
51778;SDS011;37843;53.266;6.746;2022-07-18T14:27:19;3.95;;;3.30;;
51778;SDS011;37843;53.266;6.746;2022-07-18T14:29:45;4.25;;;3.78;;
51778;SDS011;37843;53.266;6.746;2022-07-18T14:32:11;4.65;;;3.20;;
51778;SDS011;37843;53.266;6.746;2022-07-18T14:34:38;4.30;;;3.88;;
51778;SDS011;37843;53.266;6.746;2022-07-18T14:37:06;4.35;;;3.15;;
51778;SDS011;37843;53.266;6.746;2022-07-18T14:39:32;4.38;;;3.33;;
51778;SDS011;37843;53.266;6.746;2022-07-18T14:42:09;4.32;;;3.20;;
51778;SDS011;37843;53.266;6.746;2022-07-18T14:44:35;4.35;;;3.60;;
51778;SDS011;37843;53.266;6.746;2022-07-18T14:47:01;4.63;;;4.00;;
51778;SDS011;37843;53.266;6.746;2022-07-18T14:49:28;4.13;;;3.33;;
51778;SDS011;37843;53.266;6.746;2022-07-18T14:51:54;6.45;;;3.63;;
51778;SDS011;37843;53.266;6.746;2022-07-18T14:54:20;3.58;;;3.00;;
51778;SDS011;37843;53.266;6.746;2022-07-18T14:56:46;4.85;;;3.13;;
51778;SDS011;37843;53.266;6.746;2022-07-18T14:59:12;3.95;;;3.20;;
51778;SDS011;37843;53.266;6.746;2022-07-18T15:01:39;4.15;;;3.05;;
51778;SDS011;37843;53.266;6.746;2022-07-18T15:04:05;4.20;;;3.08;;
51778;SDS011;37843;53.266;6.746;2022-07-18T15:06:31;3.90;;;3.17;;
51778;SDS011;37843;53.266;6.746;2022-07-18T15:08:57;3.20;;;2.85;;
51778;SDS011;37843;53.266;6.746;2022-07-18T15:11:24;4.65;;;3.42;;
51778;SDS011;37843;53.266;6.746;2022-07-18T15:13:50;3.65;;;2.80;;
51778;SDS011;37843;53.266;6.746;2022-07-18T15:16:17;6.20;;;3.97;;
51778;SDS011;37843;53.266;6.746;2022-07-18T15:18:43;4.85;;;2.85;;